»·PEaware :: UAL304 KPSP-KSFO

UAL304 :: KPSP-KSFO

FLIGHT INFORMATION

Flight Status: Arrived
Operator:
United Airlines
More flights by this operator :: More flights under this callsign
Pilot: Vlad D. (11271)
Aircraft: BOEING 737-300
(B733)
More flights by this aircraft type
Origin: KPSP Palm Springs Intl
United States
Destination: KSFO San Francisco Intl
United States
More flights between these airports :: More routes between these airports
Route: +CATH1 PSP V386 PMD MAKRS SERFR SERFR2
File this flight plan on PilotEdge
Remarks: Flown with Virtual United - SKW6349 charter flight
Altitude:
(Current/Filed)
34,000ft
Speed:
(Current/Filed)
436kts
Departed: 17-Jun-16 10:55 AM
Arrived: 17-Jun-16 12:10 PM
Distance/Time
Traveled:
365nm/1:15
Distance/Time
To Go:
Arrived

Flight Plot

Page will automatically refresh every two minutes.

Flight plan parsing failed; only flown route is shown


Map Options




Map Legend


Flown Route
Filed Route
Departure Airport
Arrival Airport
Navaid (VOR, NDB)
Fix

Horizontal Profiles

Position Reports

Time Latitude Longitude Heading Altitude Ground
Speed
17-Jun-16 10:24 33.823891 -116.506543 194 415ft 0kts
17-Jun-16 10:25 33.823891 -116.506543 194 415ft 0kts
17-Jun-16 10:26 33.823891 -116.506543 194 415ft 0kts
17-Jun-16 10:27 33.823891 -116.506543 194 415ft 0kts
17-Jun-16 10:28 33.823891 -116.506543 194 415ft 0kts
17-Jun-16 10:29 33.823891 -116.506543 194 415ft 0kts
17-Jun-16 10:30 33.823891 -116.506543 194 415ft 0kts
17-Jun-16 10:31 33.823891 -116.506543 194 415ft 0kts
17-Jun-16 10:32 33.823891 -116.506543 194 415ft 0kts
17-Jun-16 10:33 33.823891 -116.506543 194 415ft 0kts
17-Jun-16 10:34 33.823891 -116.506543 194 415ft 0kts
17-Jun-16 10:35 33.823891 -116.506543 194 415ft 0kts
17-Jun-16 10:36 33.823891 -116.506543 194 415ft 0kts
17-Jun-16 10:37 33.823891 -116.506543 194 415ft 0kts
17-Jun-16 10:38 33.824036 -116.506500 193 415ft 0kts
17-Jun-16 10:39 33.824543 -116.506347 193 416ft 0kts
17-Jun-16 10:40 33.824752 -116.506309 138 417ft 0kts
17-Jun-16 10:41 33.824752 -116.506309 138 417ft 0kts
17-Jun-16 10:42 33.824752 -116.506309 138 417ft 0kts
17-Jun-16 10:43 33.824752 -116.506309 138 417ft 0kts
17-Jun-16 10:44 33.824752 -116.506309 138 417ft 0kts
17-Jun-16 10:45 33.824752 -116.506309 138 417ft 0kts
17-Jun-16 10:46 33.824539 -116.506074 136 416ft 5kts
17-Jun-16 10:47 33.822505 -116.503334 143 409ft 14kts
17-Jun-16 10:48 33.819214 -116.500397 145 402ft 14kts
17-Jun-16 10:49 33.818519 -116.499090 90 399ft 0kts
17-Jun-16 10:50 33.818519 -116.499090 90 399ft 0kts
17-Jun-16 10:51 33.819256 -116.498369 325 398ft 15kts
17-Jun-16 10:52 33.839876 -116.516450 324 937ft 175kts
17-Jun-16 10:53 33.891982 -116.545531 16 3425ft 229kts
17-Jun-16 10:54 33.912035 -116.486782 120 5071ft 280kts
17-Jun-16 10:55 33.862034 -116.412245 118 7900ft 297kts
17-Jun-16 10:56 33.822916 -116.322205 119 10710ft 319kts
17-Jun-16 10:57 33.743064 -116.283858 202 11894ft 341kts
17-Jun-16 10:58 33.702180 -116.376255 282 12990ft 352kts
17-Jun-16 10:59 33.780020 -116.436020 0 13009ft 375kts
17-Jun-16 11:00 33.884537 -116.435945 340 14007ft 378kts
17-Jun-16 11:01 33.985420 -116.475080 338 16410ft 389kts
17-Jun-16 11:02 34.090349 -116.516131 337 18532ft 403kts
17-Jun-16 11:03 34.197855 -116.558311 336 20469ft 415kts
17-Jun-16 11:04 34.308532 -116.602618 335 22275ft 425kts
17-Jun-16 11:05 34.422179 -116.648020 335 23993ft 435kts
17-Jun-16 11:06 34.520601 -116.718155 286 25450ft 402kts
17-Jun-16 11:07 34.521591 -116.848422 268 27113ft 390kts
17-Jun-16 11:08 34.532443 -116.981246 271 28447ft 399kts
17-Jun-16 11:09 34.545100 -117.114513 271 30034ft 396kts
17-Jun-16 11:10 34.557201 -117.245501 271 31650ft 388kts
17-Jun-16 11:11 34.569158 -117.374283 270 33041ft 381kts
17-Jun-16 11:12 34.580858 -117.501395 270 34139ft 379kts
17-Jun-16 11:13 34.592529 -117.629617 270 34153ft 383kts
17-Jun-16 11:14 34.604421 -117.757063 270 34145ft 382kts
17-Jun-16 11:15 34.616770 -117.885196 270 34137ft 381kts
17-Jun-16 11:16 34.628061 -118.012897 270 34142ft 381kts
17-Jun-16 11:17 34.663272 -118.135965 290 34148ft 403kts
17-Jun-16 11:18 34.718964 -118.254288 291 34134ft 403kts
17-Jun-16 11:19 34.774746 -118.372221 291 34130ft 403kts
17-Jun-16 11:20 34.830294 -118.490031 291 34162ft 402kts
17-Jun-16 11:21 34.885752 -118.608069 291 34226ft 403kts
17-Jun-16 11:22 34.941142 -118.725402 291 34227ft 402kts
17-Jun-16 11:23 34.996430 -118.843652 290 34222ft 401kts
17-Jun-16 11:24 35.051154 -118.961281 290 34175ft 397kts
17-Jun-16 11:25 35.105138 -119.077757 290 34132ft 394kts
17-Jun-16 11:26 35.159143 -119.194720 290 34137ft 401kts
17-Jun-16 11:27 35.214103 -119.314094 289 34138ft 406kts
17-Jun-16 11:28 35.269283 -119.434348 289 34136ft 404kts
17-Jun-16 11:29 35.324182 -119.554449 289 34137ft 405kts
17-Jun-16 11:30 35.378605 -119.673686 289 34144ft 405kts
17-Jun-16 11:31 35.433496 -119.793642 289 34138ft 404kts
17-Jun-16 11:32 35.487972 -119.914059 289 34147ft 403kts
17-Jun-16 11:33 35.542142 -120.034245 289 34155ft 403kts
17-Jun-16 11:34 35.596259 -120.154736 289 34155ft 403kts
17-Jun-16 11:35 35.650245 -120.275369 289 34156ft 403kts
17-Jun-16 11:36 35.702531 -120.395970 286 34155ft 396kts
17-Jun-16 11:37 35.749642 -120.517698 284 34154ft 393kts
17-Jun-16 11:38 35.796010 -120.639364 284 34155ft 393kts
17-Jun-16 11:39 35.842529 -120.760586 284 34154ft 392kts
17-Jun-16 11:40 35.888463 -120.881886 284 34151ft 386kts
17-Jun-16 11:41 35.933498 -121.001490 284 34135ft 387kts
17-Jun-16 11:42 35.979229 -121.123223 284 32013ft 386kts
17-Jun-16 11:43 36.024564 -121.244600 285 29834ft 396kts
17-Jun-16 11:44 36.073643 -121.367831 302 27636ft 422kts
17-Jun-16 11:45 36.175430 -121.448956 320 25474ft 438kts
17-Jun-16 11:46 36.275649 -121.527064 320 23271ft 420kts
17-Jun-16 11:47 36.372747 -121.603230 320 21136ft 407kts
17-Jun-16 11:48 36.465484 -121.675765 320 20153ft 380kts
17-Jun-16 11:49 36.556045 -121.745668 320 19029ft 382kts
17-Jun-16 11:50 36.643212 -121.814316 320 17132ft 367kts
17-Jun-16 11:51 36.727821 -121.881480 321 15258ft 357kts
17-Jun-16 11:52 36.823532 -121.919066 342 13915ft 363kts
17-Jun-16 11:53 36.920022 -121.946435 343 12215ft 352kts
17-Jun-16 11:54 37.012333 -121.976997 338 10514ft 334kts
17-Jun-16 11:55 37.098151 -122.010168 339 8811ft 313kts
17-Jun-16 11:56 37.174762 -122.040126 340 7479ft 272kts
17-Jun-16 11:57 37.233180 -122.063038 344 6438ft 266kts
17-Jun-16 11:58 37.317408 -122.096148 344 5968ft 273kts
17-Jun-16 11:59 37.377695 -122.119728 344 5084ft 277kts
17-Jun-16 12:00 37.457661 -122.149085 343 3999ft 225kts
17-Jun-16 12:01 37.504142 -122.165031 343 3472ft 201kts
17-Jun-16 12:02 37.547840 -122.204063 297 2825ft 140kts
17-Jun-16 12:03 37.563319 -122.242765 293 2048ft 145kts
17-Jun-16 12:04 37.582087 -122.287514 296 1297ft 146kts
17-Jun-16 12:05 37.600339 -122.331558 293 506ft 138kts
17-Jun-16 12:06 37.617382 -122.372035 297 15ft 90kts
17-Jun-16 12:07 37.618973 -122.377120 272 24ft 0kts
17-Jun-16 12:08 37.618953 -122.378277 270 27ft 9kts
17-Jun-16 12:09 37.619548 -122.381747 289 30ft 8kts
17-Jun-16 12:10 37.619137 -122.383318 291 30ft 0kts
17-Jun-16 12:11 37.619199 -122.383546 290 30ft 0kts

Navigation Log

Ident Type
Flight plan parsing failed, navigation log unavailable